sensor_id;sensor_type;location;lat;lon;timestamp;pressure;altitude;pressure_sealevel;temperature;humidity
77005;BME280;67261;53.132;18.006;2024-02-15T00:01:35;101459.19;;;6.78;86.19
77005;BME280;67261;53.132;18.006;2024-02-15T00:04:02;101459.66;;;6.79;86.22
77005;BME280;67261;53.132;18.006;2024-02-15T00:06:29;101458.67;;;6.80;86.34
77005;BME280;67261;53.132;18.006;2024-02-15T00:08:57;101457.58;;;6.81;86.40
77005;BME280;67261;53.132;18.006;2024-02-15T00:11:24;101456.27;;;6.82;86.31
77005;BME280;67261;53.132;18.006;2024-02-15T00:13:51;101456.19;;;6.83;86.41
77005;BME280;67261;53.132;18.006;2024-02-15T00:16:19;101455.53;;;6.85;86.54
77005;BME280;67261;53.132;18.006;2024-02-15T00:18:46;101451.06;;;6.86;86.61
77005;BME280;67261;53.132;18.006;2024-02-15T00:21:13;101450.41;;;6.85;86.71
77005;BME280;67261;53.132;18.006;2024-02-15T00:23:43;101446.70;;;6.85;86.89
77005;BME280;67261;53.132;18.006;2024-02-15T00:26:11;101448.23;;;6.86;86.90
77005;BME280;67261;53.132;18.006;2024-02-15T00:28:41;101444.31;;;6.87;86.79
77005;BME280;67261;53.132;18.006;2024-02-15T00:31:08;101446.34;;;6.88;86.88
77005;BME280;67261;53.132;18.006;2024-02-15T00:33:35;101446.95;;;6.89;87.02
77005;BME280;67261;53.132;18.006;2024-02-15T00:36:04;101443.17;;;6.90;86.91
77005;BME280;67261;53.132;18.006;2024-02-15T00:38:31;101444.19;;;6.91;86.84
77005;BME280;67261;53.132;18.006;2024-02-15T00:40:59;101442.27;;;6.92;86.98
77005;BME280;67261;53.132;18.006;2024-02-15T00:43:29;101446.34;;;6.95;87.01
77005;BME280;67261;53.132;18.006;2024-02-15T00:45:56;101445.80;;;6.95;87.17
77005;BME280;67261;53.132;18.006;2024-02-15T00:48:23;101448.85;;;6.96;87.01
77005;BME280;67261;53.132;18.006;2024-02-15T00:50:56;101449.11;;;6.98;87.06
77005;BME280;67261;53.132;18.006;2024-02-15T00:53:23;101449.91;;;6.99;87.20
77005;BME280;67261;53.132;18.006;2024-02-15T00:55:51;101446.42;;;7.00;87.14
77005;BME280;67261;53.132;18.006;2024-02-15T00:58:18;101447.51;;;7.00;87.31
77005;BME280;67261;53.132;18.006;2024-02-15T01:00:45;101446.32;;;7.02;87.18
77005;BME280;67261;53.132;18.006;2024-02-15T01:03:12;101445.55;;;7.03;87.37
77005;BME280;67261;53.132;18.006;2024-02-15T01:05:40;101446.27;;;7.02;87.36
77005;BME280;67261;53.132;18.006;2024-02-15T01:08:06;101444.96;;;7.03;87.36
77005;BME280;67261;53.132;18.006;2024-02-15T01:10:35;101443.73;;;7.03;87.50
77005;BME280;67261;53.132;18.006;2024-02-15T01:13:05;101444.55;;;7.04;87.61
77005;BME280;67261;53.132;18.006;2024-02-15T01:15:33;101442.02;;;7.05;87.54
77005;BME280;67261;53.132;18.006;2024-02-15T01:18:00;101441.02;;;7.05;87.63
77005;BME280;67261;53.132;18.006;2024-02-15T01:20:27;101440.27;;;7.05;87.66
77005;BME280;67261;53.132;18.006;2024-02-15T01:22:54;101441.58;;;7.06;87.65
77005;BME280;67261;53.132;18.006;2024-02-15T01:25:21;101442.10;;;7.06;87.93
77005;BME280;67261;53.132;18.006;2024-02-15T01:27:49;101440.08;;;7.08;87.86
77005;BME280;67261;53.132;18.006;2024-02-15T01:30:16;101438.22;;;7.09;87.88
77005;BME280;67261;53.132;18.006;2024-02-15T01:32:44;101437.65;;;7.09;87.99
77005;BME280;67261;53.132;18.006;2024-02-15T01:35:11;101439.89;;;7.10;87.94
77005;BME280;67261;53.132;18.006;2024-02-15T01:37:38;101437.65;;;7.12;88.12
77005;BME280;67261;53.132;18.006;2024-02-15T01:40:06;101433.75;;;7.12;88.13
77005;BME280;67261;53.132;18.006;2024-02-15T01:42:33;101430.13;;;7.14;88.07
77005;BME280;67261;53.132;18.006;2024-02-15T01:45:00;101427.73;;;7.15;88.08
77005;BME280;67261;53.132;18.006;2024-02-15T01:47:27;101425.59;;;7.15;88.12
77005;BME280;67261;53.132;18.006;2024-02-15T01:49:55;101422.65;;;7.14;88.06
77005;BME280;67261;53.132;18.006;2024-02-15T01:52:23;101423.23;;;7.16;88.20
77005;BME280;67261;53.132;18.006;2024-02-15T01:54:52;101423.88;;;7.17;88.27
77005;BME280;67261;53.132;18.006;2024-02-15T01:57:21;101420.92;;;7.16;88.41
77005;BME280;67261;53.132;18.006;2024-02-15T01:59:50;101420.76;;;7.16;88.52
77005;BME280;67261;53.132;18.006;2024-02-15T02:02:20;101421.27;;;7.19;88.60
77005;BME280;67261;53.132;18.006;2024-02-15T02:04:50;101418.67;;;7.21;88.50
77005;BME280;67261;53.132;18.006;2024-02-15T02:07:16;101417.24;;;7.21;88.61
77005;BME280;67261;53.132;18.006;2024-02-15T02:09:43;101418.34;;;7.23;88.61
77005;BME280;67261;53.132;18.006;2024-02-15T02:12:12;101412.80;;;7.24;88.56
77005;BME280;67261;53.132;18.006;2024-02-15T02:14:39;101416.98;;;7.27;88.62
77005;BME280;67261;53.132;18.006;2024-02-15T02:17:11;101415.95;;;7.29;88.58
77005;BME280;67261;53.132;18.006;2024-02-15T02:19:39;101414.65;;;7.30;88.69
77005;BME280;67261;53.132;18.006;2024-02-15T02:22:08;101412.94;;;7.31;88.64
77005;BME280;67261;53.132;18.006;2024-02-15T02:24:43;101410.17;;;7.33;88.77
77005;BME280;67261;53.132;18.006;2024-02-15T02:27:13;101413.41;;;7.34;88.73
77005;BME280;67261;53.132;18.006;2024-02-15T02:29:43;101407.55;;;7.35;88.84
77005;BME280;67261;53.132;18.006;2024-02-15T02:32:13;101411.71;;;7.36;88.81
77005;BME280;67261;53.132;18.006;2024-02-15T02:34:41;101408.65;;;7.37;88.82
77005;BME280;67261;53.132;18.006;2024-02-15T02:37:08;101407.96;;;7.37;88.90
77005;BME280;67261;53.132;18.006;2024-02-15T02:39:34;101405.59;;;7.38;89.00
77005;BME280;67261;53.132;18.006;2024-02-15T02:42:01;101405.84;;;7.39;89.06
77005;BME280;67261;53.132;18.006;2024-02-15T02:44:28;101404.84;;;7.41;88.92
77005;BME280;67261;53.132;18.006;2024-02-15T02:46:55;101405.77;;;7.42;89.07
77005;BME280;67261;53.132;18.006;2024-02-15T02:49:22;101403.77;;;7.43;89.02
77005;BME280;67261;53.132;18.006;2024-02-15T02:51:49;101404.15;;;7.45;88.96
77005;BME280;67261;53.132;18.006;2024-02-15T02:54:16;101405.70;;;7.45;89.19
77005;BME280;67261;53.132;18.006;2024-02-15T02:56:44;101405.23;;;7.45;89.19
77005;BME280;67261;53.132;18.006;2024-02-15T02:59:11;101402.37;;;7.45;89.30
77005;BME280;67261;53.132;18.006;2024-02-15T03:01:39;101404.67;;;7.45;89.34
77005;BME280;67261;53.132;18.006;2024-02-15T03:04:08;101404.48;;;7.47;89.23
77005;BME280;67261;53.132;18.006;2024-02-15T03:06:34;101403.61;;;7.48;89.38
77005;BME280;67261;53.132;18.006;2024-02-15T03:09:01;101403.40;;;7.48;89.45
